createdAt,value
2022-12-19T00:12:50.124Z,3.31
2022-12-19T00:32:50.228Z,3.12
2022-12-19T00:52:50.161Z,3.18
2022-12-19T01:12:50.223Z,3.25
2022-12-19T01:32:50.298Z,3.62
2022-12-19T01:52:50.307Z,3.50
2022-12-19T02:12:50.292Z,3.37
2022-12-19T02:32:50.319Z,3.37
2022-12-19T02:52:50.344Z,3.37
2022-12-19T03:12:50.368Z,3.31
2022-12-19T03:32:50.390Z,3.43
2022-12-19T03:52:50.407Z,3.43
2022-12-19T04:12:50.427Z,3.31
2022-12-19T04:32:50.472Z,3.37
2022-12-19T04:52:50.483Z,3.37
2022-12-19T05:12:50.506Z,3.25
2022-12-19T05:32:50.596Z,3.18
2022-12-19T05:52:50.456Z,3.50
2022-12-19T06:12:50.478Z,3.31
2022-12-19T06:32:50.506Z,3.37
2022-12-19T06:52:50.524Z,3.18
2022-12-19T07:12:50.568Z,3.37
2022-12-19T07:32:50.584Z,3.31
2022-12-19T07:52:50.619Z,3.25
2022-12-19T08:12:50.672Z,3.25
2022-12-19T08:32:50.580Z,3.18
2022-12-19T08:52:50.613Z,3.31
2022-12-19T09:12:50.683Z,3.18
2022-12-19T09:32:50.671Z,3.18
2022-12-19T09:52:50.697Z,3.37
2022-12-19T10:12:50.915Z,3.43
2022-12-19T10:32:50.676Z,3.62
2022-12-19T10:52:50.702Z,3.50
2022-12-19T11:12:50.726Z,3.62
2022-12-19T11:32:50.783Z,3.62
2022-12-19T11:52:50.784Z,3.68
2022-12-19T12:12:50.718Z,3.68
2022-12-19T12:32:50.747Z,3.68
2022-12-19T12:52:50.777Z,3.56
2022-12-19T13:12:50.853Z,3.75
2022-12-19T13:32:50.759Z,3.75
2022-12-19T13:52:50.776Z,3.81
2022-12-19T14:12:50.806Z,3.81
2022-12-19T14:32:50.832Z,3.81
2022-12-19T14:52:50.857Z,3.81
2022-12-19T15:12:50.871Z,3.87
2022-12-19T15:32:51.032Z,3.75
2022-12-19T15:52:50.822Z,3.68
2022-12-19T16:12:50.923Z,3.68
2022-12-19T16:32:50.872Z,3.68
2022-12-19T16:52:50.925Z,3.68
2022-12-19T17:12:50.958Z,3.87
2022-12-19T17:32:50.952Z,3.81
2022-12-19T17:52:50.877Z,3.75
2022-12-19T18:12:50.901Z,3.68
2022-12-19T18:32:50.921Z,3.75
2022-12-19T18:52:50.945Z,3.81
2022-12-19T19:12:50.960Z,3.81
2022-12-19T19:32:50.998Z,3.87
2022-12-19T19:52:50.992Z,3.75
2022-12-19T20:12:51.024Z,3.75
2022-12-19T20:32:51.120Z,3.75
2022-12-19T20:52:51.067Z,3.75
2022-12-19T21:12:51.092Z,3.75
2022-12-19T21:32:51.085Z,3.75
2022-12-19T21:52:51.105Z,3.68
2022-12-19T22:12:51.143Z,3.75
2022-12-19T22:32:51.195Z,3.68
2022-12-19T22:52:51.150Z,3.68
2022-12-19T23:12:51.227Z,3.68
2022-12-19T23:32:51.179Z,3.81
2022-12-19T23:52:51.199Z,3.68
